createdAt,value
2023-05-10T00:21:26.478Z,1.12
2023-05-10T00:36:20.206Z,1.32
2023-05-10T00:51:13.333Z,1.44
2023-05-10T01:06:06.294Z,1.74
2023-05-10T01:21:11.126Z,2.03
2023-05-10T01:36:32.169Z,2.13
2023-05-10T01:51:29.766Z,2.42
2023-05-10T02:21:15.728Z,3.50
2023-05-10T03:06:07.979Z,4.49
2023-05-10T03:21:01.868Z,4.47
2023-05-10T03:35:55.221Z,5.18
2023-05-10T03:50:47.772Z,5.00
2023-05-10T04:35:24.172Z,3.63
2023-05-10T05:20:15.754Z,4.41
2023-05-10T05:35:08.708Z,3.97
2023-05-10T05:50:01.813Z,3.19
2023-05-10T06:04:53.176Z,2.56
2023-05-10T06:34:37.008Z,2.23
2023-05-10T07:04:22.727Z,1.61
2023-05-10T07:19:14.192Z,1.47
2023-05-10T07:34:04.744Z,1.08
2023-05-10T07:48:56.017Z,1.21
2023-05-10T08:03:48.690Z,1.24
2023-05-10T08:18:40.292Z,1.34
2023-05-10T08:33:34.422Z,0.93
2023-05-10T08:48:26.221Z,0.80
2023-05-10T09:03:17.045Z,0.80
2023-05-10T09:18:08.400Z,0.91
2023-05-10T09:33:00.177Z,1.07
2023-05-10T09:47:50.622Z,0.80
2023-05-10T10:02:43.566Z,1.06
2023-05-10T10:17:36.925Z,1.03
2023-05-10T10:32:47.894Z,1.14
2023-05-10T10:47:46.505Z,1.60
2023-05-10T11:02:43.560Z,2.01
2023-05-10T11:17:38.972Z,2.12
2023-05-10T11:32:31.975Z,1.67
2023-05-10T11:47:23.205Z,1.19
2023-05-10T12:02:15.051Z,1.20
2023-05-10T12:17:07.045Z,1.29
2023-05-10T12:31:59.644Z,0.96
2023-05-10T12:46:52.093Z,1.20
2023-05-10T13:01:44.528Z,0.82
2023-05-10T13:16:37.419Z,0.90
2023-05-10T13:31:28.961Z,1.45
2023-05-10T13:46:21.066Z,0.90
2023-05-10T14:01:13.295Z,0.70
2023-05-10T14:16:05.511Z,0.70
2023-05-10T14:30:58.095Z,0.76
2023-05-10T14:46:03.408Z,0.68
2023-05-10T15:00:56.502Z,0.77
2023-05-10T15:15:45.389Z,1.12
2023-05-10T15:30:35.234Z,3.91
2023-05-10T15:45:32.050Z,0.80
2023-05-10T16:00:22.551Z,0.73
2023-05-10T16:15:16.036Z,0.60
2023-05-10T17:00:03.964Z,0.56
2023-05-10T17:29:48.421Z,0.46
2023-05-10T18:14:39.056Z,0.90
2023-05-10T18:29:30.486Z,1.56
2023-05-10T18:44:17.598Z,1.04
2023-05-10T18:59:09.778Z,0.70
2023-05-10T19:14:09.039Z,0.66
2023-05-10T19:29:00.336Z,0.97
2023-05-10T19:43:51.231Z,1.32
2023-05-10T19:58:42.793Z,1.23
2023-05-10T20:13:34.665Z,0.89
2023-05-10T20:28:26.773Z,1.03
2023-05-10T20:43:17.675Z,1.40
2023-05-10T20:58:09.238Z,0.99
2023-05-10T21:13:00.448Z,0.90
2023-05-10T21:27:52.554Z,1.09
2023-05-10T21:42:44.664Z,1.24
2023-05-10T21:57:36.415Z,1.19
2023-05-10T22:12:27.292Z,1.13
2023-05-10T22:27:17.778Z,1.24
2023-05-10T22:42:08.860Z,2.98
2023-05-10T22:57:00.600Z,1.00
2023-05-10T23:11:51.932Z,1.22
2023-05-10T23:41:35.328Z,1.27
